createdAt,value
2022-12-03T00:02:57.572Z,73.11
2022-12-03T00:05:59.498Z,73.00
2022-12-03T00:09:01.281Z,72.91
2022-12-03T00:12:03.324Z,72.91
2022-12-03T00:15:06.557Z,73.11
2022-12-03T00:18:08.413Z,73.23
2022-12-03T00:21:10.275Z,73.03
2022-12-03T00:24:12.153Z,73.07
2022-12-03T00:27:14.078Z,73.48
2022-12-03T00:30:16.070Z,73.60
2022-12-03T00:33:17.846Z,73.13
2022-12-03T00:36:19.832Z,73.18
2022-12-03T00:39:21.762Z,73.06
2022-12-03T00:42:23.618Z,73.25
2022-12-03T00:45:25.452Z,73.58
2022-12-03T00:48:27.368Z,73.38
2022-12-03T00:51:29.258Z,73.71
2022-12-03T00:54:32.222Z,73.80
2022-12-03T00:57:34.399Z,73.79
2022-12-03T01:00:37.810Z,73.76
2022-12-03T01:03:39.717Z,73.95
2022-12-03T01:06:41.633Z,74.29
2022-12-03T01:09:43.518Z,74.22
2022-12-03T01:12:45.599Z,74.26
2022-12-03T01:15:48.047Z,74.77
2022-12-03T01:18:52.453Z,74.46
2022-12-03T01:21:55.621Z,74.49
2022-12-03T01:24:57.456Z,74.94
2022-12-03T01:27:59.331Z,74.70
2022-12-03T01:31:19.671Z,75.77
2022-12-03T01:34:21.912Z,75.89
2022-12-03T01:37:26.035Z,75.81
2022-12-03T01:40:27.891Z,75.88
2022-12-03T01:43:29.986Z,76.75
2022-12-03T01:46:39.061Z,77.14
2022-12-03T01:49:48.904Z,77.17
2022-12-03T01:52:51.178Z,77.25
2022-12-03T01:55:53.056Z,77.26
2022-12-03T01:58:54.947Z,77.55
2022-12-03T02:01:56.794Z,77.76
2022-12-03T02:05:00.257Z,77.63
2022-12-03T02:08:02.327Z,77.84
2022-12-03T02:11:33.268Z,77.57
2022-12-03T02:14:35.222Z,77.77
2022-12-03T02:17:37.419Z,77.96
2022-12-03T02:20:53.456Z,77.79
2022-12-03T02:24:23.822Z,77.74
2022-12-03T02:27:28.338Z,78.33
2022-12-03T02:30:31.635Z,78.04
2022-12-03T02:33:33.674Z,78.39
2022-12-03T02:36:36.566Z,77.86
2022-12-03T02:39:41.310Z,78.22
2022-12-03T02:42:45.007Z,78.34
2022-12-03T02:45:49.955Z,78.30
2022-12-03T02:48:51.982Z,78.63
2022-12-03T02:51:53.900Z,78.44
2022-12-03T02:54:56.097Z,78.60
2022-12-03T02:57:58.404Z,78.51
2022-12-03T03:01:02.199Z,78.51
2022-12-03T03:04:05.691Z,78.52
2022-12-03T03:07:08.411Z,78.20
2022-12-03T03:10:14.626Z,78.45
2022-12-03T03:13:18.688Z,78.31
2022-12-03T03:16:20.733Z,78.49
2022-12-03T03:19:26.626Z,78.65
2022-12-03T03:22:37.325Z,78.77
2022-12-03T03:25:41.183Z,78.75
2022-12-03T03:28:46.835Z,79.18
2022-12-03T03:31:49.103Z,79.17
2022-12-03T03:34:51.243Z,79.21
2022-12-03T03:37:53.922Z,79.40
2022-12-03T03:40:58.130Z,79.48
2022-12-03T03:44:00.646Z,80.06
2022-12-03T03:47:03.017Z,80.40
2022-12-03T03:50:07.270Z,79.86
2022-12-03T03:53:11.069Z,80.08
2022-12-03T03:56:13.531Z,79.92
2022-12-03T03:59:15.798Z,80.52
2022-12-03T04:02:22.031Z,80.07
2022-12-03T04:05:24.933Z,80.52
2022-12-03T04:08:26.660Z,80.47
2022-12-03T04:11:47.055Z,80.53
2022-12-03T04:14:48.918Z,79.94
2022-12-03T04:18:11.169Z,80.92
2022-12-03T04:21:34.024Z,80.84
2022-12-03T04:24:35.928Z,80.60
2022-12-03T04:27:56.555Z,80.96
2022-12-03T04:30:58.547Z,80.67
2022-12-03T04:34:18.827Z,80.97
2022-12-03T04:37:20.842Z,81.26
2022-12-03T04:40:41.300Z,81.26
2022-12-03T04:44:01.444Z,81.23
2022-12-03T04:47:12.220Z,81.27
2022-12-03T04:50:14.144Z,81.31
2022-12-03T04:53:16.277Z,81.02
2022-12-03T04:56:18.151Z,81.11
2022-12-03T04:59:20.182Z,81.34
2022-12-03T05:02:22.085Z,81.60
2022-12-03T05:05:24.048Z,81.36
2022-12-03T05:08:25.967Z,81.06
2022-12-03T05:11:27.940Z,81.04
2022-12-03T05:14:29.850Z,81.35
2022-12-03T05:17:31.815Z,80.77
2022-12-03T05:20:43.843Z,81.54
2022-12-03T05:23:47.627Z,81.68
2022-12-03T05:26:49.854Z,81.67
2022-12-03T05:29:52.141Z,81.29
2022-12-03T05:32:54.105Z,81.54
2022-12-03T05:35:56.003Z,81.33
2022-12-03T05:38:57.875Z,81.60
2022-12-03T05:42:18.183Z,81.61
2022-12-03T05:45:41.300Z,81.80
2022-12-03T05:48:43.140Z,81.72
2022-12-03T05:51:45.025Z,81.40
2022-12-03T05:54:46.882Z,81.29
2022-12-03T05:57:49.127Z,81.52
2022-12-03T06:00:51.036Z,81.29
2022-12-03T06:03:53.005Z,81.57
2022-12-03T06:06:54.976Z,81.55
2022-12-03T06:09:56.888Z,81.26
2022-12-03T06:12:58.810Z,80.96
2022-12-03T06:16:00.715Z,80.47
2022-12-03T06:19:03.231Z,80.86
2022-12-03T06:22:05.148Z,81.00
2022-12-03T06:25:07.508Z,80.49
2022-12-03T06:28:09.399Z,80.70
2022-12-03T06:31:11.337Z,80.14
2022-12-03T06:34:13.700Z,80.64
2022-12-03T06:37:15.593Z,80.44
2022-12-03T06:40:17.503Z,80.28
2022-12-03T06:43:19.311Z,80.58
2022-12-03T06:46:21.234Z,79.82
2022-12-03T06:49:23.130Z,79.75
2022-12-03T06:52:24.979Z,80.45
2022-12-03T06:55:26.768Z,79.82
2022-12-03T06:58:28.657Z,80.26
2022-12-03T07:01:30.623Z,79.71
2022-12-03T07:04:32.512Z,79.79
2022-12-03T07:07:34.387Z,79.57
2022-12-03T07:10:36.316Z,79.62
2022-12-03T07:13:38.480Z,79.11
2022-12-03T07:16:40.564Z,79.23
2022-12-03T07:19:42.421Z,79.16
2022-12-03T07:22:44.231Z,78.87
2022-12-03T07:25:46.407Z,79.19
2022-12-03T07:28:48.402Z,79.36
2022-12-03T07:31:50.459Z,78.95
2022-12-03T07:34:52.777Z,78.98
2022-12-03T07:37:54.831Z,78.62
2022-12-03T07:40:56.737Z,78.82
2022-12-03T07:43:58.583Z,78.77
2022-12-03T07:47:00.553Z,78.26
2022-12-03T07:50:02.489Z,78.42
2022-12-03T07:53:04.365Z,78.21
2022-12-03T07:56:06.712Z,78.09
2022-12-03T07:59:08.601Z,78.39
2022-12-03T08:02:10.576Z,78.08
2022-12-03T08:05:12.439Z,78.03
2022-12-03T08:08:14.757Z,78.44
2022-12-03T08:11:16.599Z,77.82
2022-12-03T08:14:20.557Z,77.73
2022-12-03T08:17:23.607Z,78.13
2022-12-03T08:20:33.439Z,77.76
2022-12-03T08:23:36.777Z,78.22
2022-12-03T08:26:38.641Z,78.47
2022-12-03T08:29:40.455Z,77.88
2022-12-03T08:32:43.119Z,77.85
2022-12-03T08:35:50.997Z,77.80
2022-12-03T08:38:57.245Z,77.60
2022-12-03T08:42:28.349Z,77.44
2022-12-03T08:45:32.163Z,77.55
2022-12-03T08:48:40.709Z,77.83
2022-12-03T08:51:45.775Z,77.44
2022-12-03T08:54:54.720Z,77.17
2022-12-03T08:57:56.904Z,77.51
2022-12-03T09:01:08.649Z,76.70
2022-12-03T09:04:31.034Z,76.49
2022-12-03T09:07:33.023Z,76.94
2022-12-03T09:10:34.928Z,76.72
2022-12-03T09:13:36.846Z,77.15
2022-12-03T09:16:38.785Z,76.91
2022-12-03T09:19:46.187Z,76.96
2022-12-03T09:22:48.442Z,76.85
2022-12-03T09:25:50.278Z,76.60
2022-12-03T09:28:52.179Z,76.45
2022-12-03T09:31:54.097Z,76.45
2022-12-03T09:34:56.305Z,76.10
2022-12-03T09:37:58.349Z,76.17
2022-12-03T09:41:00.440Z,75.70
2022-12-03T09:44:04.290Z,76.04
2022-12-03T09:47:08.189Z,76.14
2022-12-03T09:50:14.796Z,75.91
2022-12-03T09:53:20.958Z,75.41
2022-12-03T09:56:23.640Z,75.96
2022-12-03T09:59:31.687Z,75.62
2022-12-03T10:02:34.811Z,76.11
2022-12-03T10:05:36.955Z,75.83
2022-12-03T10:08:38.871Z,75.50
2022-12-03T10:11:40.814Z,75.39
2022-12-03T10:14:43.086Z,75.80
2022-12-03T10:17:48.017Z,76.13
2022-12-03T10:20:53.563Z,75.98
2022-12-03T10:24:17.397Z,76.22
2022-12-03T10:30:56.761Z,75.82
2022-12-03T10:33:58.723Z,75.54
2022-12-03T10:37:14.920Z,75.36
2022-12-03T10:40:25.315Z,75.35
2022-12-03T10:43:28.372Z,75.30
2022-12-03T10:46:34.152Z,75.93
2022-12-03T10:49:36.505Z,75.53
2022-12-03T10:52:38.402Z,75.70
2022-12-03T10:55:42.616Z,75.71
2022-12-03T10:58:44.725Z,75.52
2022-12-03T11:01:47.045Z,75.30
2022-12-03T11:04:49.604Z,75.66
2022-12-03T11:07:51.586Z,75.12
2022-12-03T11:11:20.802Z,75.06
2022-12-03T11:14:54.046Z,75.10
2022-12-03T11:17:56.234Z,75.16
2022-12-03T11:20:58.035Z,74.70
2022-12-03T11:23:59.838Z,75.23
2022-12-03T11:27:01.741Z,75.39
2022-12-03T11:30:03.908Z,75.18
2022-12-03T11:33:32.858Z,74.38
2022-12-03T11:37:00.259Z,74.74
2022-12-03T11:40:04.026Z,75.15
2022-12-03T11:43:10.028Z,75.40
2022-12-03T11:46:12.166Z,75.01
2022-12-03T11:49:32.855Z,75.37
2022-12-03T11:52:43.269Z,75.67
2022-12-03T11:55:49.113Z,75.27
2022-12-03T11:59:01.981Z,75.36
2022-12-03T12:02:20.092Z,74.96
2022-12-03T12:05:26.799Z,75.03
2022-12-03T12:08:28.811Z,75.81
2022-12-03T12:11:33.864Z,76.18
2022-12-03T12:14:35.793Z,76.12
2022-12-03T12:17:37.703Z,75.46
2022-12-03T12:20:39.661Z,75.42
2022-12-03T12:23:41.573Z,75.01
2022-12-03T12:26:51.378Z,75.15
2022-12-03T12:30:01.461Z,75.59
2022-12-03T12:33:24.466Z,74.77
2022-12-03T12:36:26.289Z,74.30
2022-12-03T12:39:28.415Z,74.82
2022-12-03T12:42:31.853Z,74.13
2022-12-03T12:45:35.736Z,74.42
2022-12-03T12:48:39.373Z,74.85
2022-12-03T12:51:45.563Z,73.73
2022-12-03T12:54:47.504Z,74.12
2022-12-03T12:57:49.889Z,73.91
2022-12-03T13:00:56.125Z,73.70
2022-12-03T13:03:59.606Z,72.76
2022-12-03T13:07:01.583Z,73.08
2022-12-03T13:10:20.541Z,72.98
2022-12-03T13:13:25.967Z,72.51
2022-12-03T13:16:32.756Z,72.63
2022-12-03T13:19:43.312Z,72.04
2022-12-03T13:22:48.805Z,71.97
2022-12-03T13:26:09.240Z,72.47
2022-12-03T13:29:16.612Z,72.36
2022-12-03T13:32:31.237Z,72.73
2022-12-03T13:35:36.430Z,73.07
2022-12-03T13:38:38.345Z,72.74
2022-12-03T13:42:00.187Z,72.95
2022-12-03T13:45:04.003Z,72.99
2022-12-03T13:48:30.374Z,72.90
2022-12-03T13:51:33.451Z,73.19
2022-12-03T13:54:38.077Z,73.08
2022-12-03T13:57:40.058Z,73.00
2022-12-03T14:00:43.073Z,73.23
2022-12-03T14:03:45.088Z,72.91
2022-12-03T14:06:46.935Z,73.20
2022-12-03T14:09:48.829Z,73.57
2022-12-03T14:12:50.691Z,73.49
2022-12-03T14:15:52.506Z,73.81
2022-12-03T14:18:54.417Z,74.30
2022-12-03T14:21:56.446Z,74.39
2022-12-03T14:24:58.388Z,74.31
2022-12-03T14:28:00.900Z,73.41
2022-12-03T14:31:02.771Z,74.20
2022-12-03T14:34:04.646Z,74.08
2022-12-03T14:37:06.500Z,74.10
2022-12-03T14:40:09.204Z,74.20
2022-12-03T14:43:11.148Z,74.40
2022-12-03T14:46:12.977Z,74.00
2022-12-03T14:49:14.869Z,74.28
2022-12-03T14:52:17.131Z,74.26
2022-12-03T14:55:19.147Z,74.72
2022-12-03T14:58:20.922Z,75.14
2022-12-03T15:01:23.326Z,74.68
2022-12-03T15:04:25.609Z,74.79
2022-12-03T15:07:27.560Z,74.33
2022-12-03T15:10:29.453Z,74.59
2022-12-03T15:13:31.364Z,74.80
2022-12-03T15:16:33.324Z,74.73
2022-12-03T15:19:35.199Z,74.95
2022-12-03T15:22:36.998Z,74.50
2022-12-03T15:25:38.946Z,74.59
2022-12-03T15:28:45.331Z,74.44
2022-12-03T15:31:50.015Z,74.33
2022-12-03T15:34:52.043Z,74.70
2022-12-03T15:41:24.952Z,75.00
2022-12-03T15:44:26.908Z,74.89
2022-12-03T15:47:28.843Z,74.82
2022-12-03T15:50:33.530Z,74.97
2022-12-03T15:53:37.947Z,75.32
2022-12-03T15:59:59.962Z,75.11
2022-12-03T16:03:01.809Z,75.30
2022-12-03T16:06:03.872Z,75.00
2022-12-03T16:09:05.708Z,75.58
2022-12-03T16:12:07.598Z,75.00
2022-12-03T16:15:10.169Z,75.29
2022-12-03T16:18:12.125Z,74.91
2022-12-03T16:21:14.303Z,75.20
2022-12-03T16:24:16.220Z,75.18
2022-12-03T16:27:22.742Z,75.08
2022-12-03T16:30:27.224Z,75.02
2022-12-03T16:33:29.035Z,74.85
2022-12-03T16:36:30.953Z,75.10
2022-12-03T16:42:52.758Z,75.11
2022-12-03T16:46:20.656Z,74.90
2022-12-03T16:49:22.939Z,74.48
2022-12-03T16:52:24.808Z,74.29
2022-12-03T16:55:32.330Z,74.54
2022-12-03T16:58:34.231Z,75.10
2022-12-03T17:01:36.091Z,74.47
2022-12-03T17:04:38.215Z,73.98
2022-12-03T17:07:40.057Z,74.48
2022-12-03T17:10:42.644Z,74.00
2022-12-03T17:13:44.539Z,74.64
2022-12-03T17:16:46.378Z,74.81
2022-12-03T17:19:48.245Z,74.45
2022-12-03T17:22:50.260Z,74.75
2022-12-03T17:25:52.218Z,75.07
2022-12-03T17:28:54.155Z,74.82
2022-12-03T17:31:56.001Z,74.70
2022-12-03T17:34:58.019Z,74.89
2022-12-03T17:37:59.974Z,75.09
2022-12-03T17:41:01.770Z,74.86
2022-12-03T17:44:09.733Z,74.97
2022-12-03T17:47:12.665Z,74.77
2022-12-03T17:50:14.545Z,74.89
2022-12-03T17:53:16.405Z,74.95
2022-12-03T17:56:18.273Z,75.47
2022-12-03T17:59:20.146Z,75.04
2022-12-03T18:02:21.999Z,75.06
2022-12-03T18:05:25.773Z,75.07
2022-12-03T18:08:27.650Z,75.03
2022-12-03T18:11:29.446Z,75.14
2022-12-03T18:14:31.290Z,75.33
2022-12-03T18:17:33.171Z,75.14
2022-12-03T18:20:35.185Z,75.55
2022-12-03T18:23:37.081Z,75.44
2022-12-03T18:26:39.034Z,75.23
2022-12-03T18:29:40.822Z,75.38
2022-12-03T18:32:42.728Z,75.63
2022-12-03T18:35:44.706Z,75.27
2022-12-03T18:38:56.963Z,75.66
2022-12-03T18:41:58.864Z,75.64
2022-12-03T18:45:01.282Z,75.65
2022-12-03T18:48:11.897Z,75.88
2022-12-03T18:51:17.621Z,75.74
2022-12-03T18:54:19.419Z,75.61
2022-12-03T18:57:21.383Z,75.94
2022-12-03T19:00:23.429Z,76.27
2022-12-03T19:03:25.406Z,76.12
2022-12-03T19:06:29.080Z,76.18
2022-12-03T19:09:30.942Z,75.99
2022-12-03T19:12:33.264Z,76.40
2022-12-03T19:15:41.460Z,75.80
2022-12-03T19:18:43.803Z,75.99
2022-12-03T19:21:45.603Z,76.21
2022-12-03T19:24:47.476Z,76.07
2022-12-03T19:27:50.824Z,75.92
2022-12-03T19:31:14.728Z,76.17
2022-12-03T19:34:17.071Z,75.92
2022-12-03T19:37:18.903Z,76.44
2022-12-03T19:40:23.161Z,76.39
2022-12-03T19:43:25.012Z,76.31
2022-12-03T19:46:31.752Z,76.00
2022-12-03T19:49:33.765Z,76.02
2022-12-03T19:52:36.555Z,75.85
2022-12-03T19:55:38.540Z,76.10
2022-12-03T19:58:42.471Z,75.91
2022-12-03T20:01:44.354Z,76.17
2022-12-03T20:04:46.349Z,76.03
2022-12-03T20:07:48.200Z,76.21
2022-12-03T20:10:50.100Z,76.58
2022-12-03T20:13:58.228Z,76.34
2022-12-03T20:17:00.126Z,76.36
2022-12-03T20:20:02.023Z,76.37
2022-12-03T20:23:04.019Z,76.77
2022-12-03T20:26:13.104Z,76.76
2022-12-03T20:29:15.061Z,77.07
2022-12-03T20:32:17.164Z,76.79
2022-12-03T20:35:19.057Z,76.78
2022-12-03T20:38:22.122Z,77.06
2022-12-03T20:41:24.103Z,76.92
2022-12-03T20:44:25.944Z,77.08
2022-12-03T20:47:27.848Z,77.04
2022-12-03T20:50:29.646Z,77.30
2022-12-03T20:53:31.488Z,77.21
2022-12-03T20:56:37.443Z,77.29
2022-12-03T20:59:39.390Z,77.01
2022-12-03T21:02:41.222Z,77.15
2022-12-03T21:05:43.989Z,77.28
2022-12-03T21:08:46.278Z,77.06
2022-12-03T21:11:48.163Z,77.19
2022-12-03T21:14:50.029Z,76.95
2022-12-03T21:17:52.086Z,77.36
2022-12-03T21:20:53.955Z,77.35
2022-12-03T21:23:57.483Z,77.27
2022-12-03T21:26:59.292Z,77.60
2022-12-03T21:30:01.113Z,77.38
2022-12-03T21:33:03.035Z,77.71
2022-12-03T21:36:05.971Z,77.58
2022-12-03T21:39:08.084Z,77.88
2022-12-03T21:42:34.487Z,77.77
2022-12-03T21:45:31.816Z,77.72
2022-12-03T21:48:33.916Z,78.01
2022-12-03T21:51:35.779Z,77.79
2022-12-03T21:54:37.655Z,77.87
2022-12-03T21:57:39.536Z,78.08
2022-12-03T22:00:41.337Z,78.22
2022-12-03T22:03:43.564Z,77.90
2022-12-03T22:06:45.371Z,77.94
2022-12-03T22:09:47.230Z,78.04
2022-12-03T22:12:49.052Z,77.72
2022-12-03T22:15:50.886Z,77.73
2022-12-03T22:18:54.154Z,78.11
2022-12-03T22:21:55.995Z,78.00
2022-12-03T22:24:57.876Z,77.92
2022-12-03T22:27:59.830Z,77.96
2022-12-03T22:31:08.775Z,77.83
2022-12-03T22:34:10.657Z,77.87
2022-12-03T22:37:12.570Z,78.40
2022-12-03T22:40:14.675Z,78.05
2022-12-03T22:43:17.289Z,78.24
2022-12-03T22:46:19.167Z,77.98
2022-12-03T22:49:21.432Z,78.44
2022-12-03T22:52:23.306Z,77.94
2022-12-03T22:55:25.162Z,77.79
2022-12-03T22:58:28.760Z,77.94
2022-12-03T23:01:33.071Z,77.11
2022-12-03T23:04:34.939Z,77.14
2022-12-03T23:07:36.873Z,76.70
2022-12-03T23:10:42.492Z,75.95
2022-12-03T23:13:44.831Z,75.76
2022-12-03T23:16:46.735Z,75.14
2022-12-03T23:19:48.749Z,74.77
2022-12-03T23:22:51.451Z,74.97
2022-12-03T23:25:58.134Z,74.04
2022-12-03T23:29:00.035Z,73.79
2022-12-03T23:32:02.056Z,73.29
2022-12-03T23:35:05.344Z,73.10
2022-12-03T23:38:07.162Z,73.38
2022-12-03T23:41:11.757Z,72.83
2022-12-03T23:44:13.644Z,72.65
2022-12-03T23:47:15.569Z,72.19
2022-12-03T23:50:17.461Z,72.70
2022-12-03T23:53:19.326Z,72.37
2022-12-03T23:56:27.302Z,72.37
2022-12-03T23:59:29.133Z,72.35
